sensor_id;sensor_type;location;lat;lon;timestamp;pressure;altitude;pressure_sealevel;temperature;humidity
55994;BME280;67425;52.126;20.638;2024-02-28T00:01:26;57721.94;;;-144.78;68.60
55994;BME280;67425;52.126;20.638;2024-02-28T00:03:51;57726.09;;;-144.78;68.11
55994;BME280;67425;52.126;20.638;2024-02-28T00:06:17;57705.34;;;-144.78;67.90
55994;BME280;67425;52.126;20.638;2024-02-28T00:08:42;57744.78;;;-144.78;67.91
55994;BME280;67425;52.126;20.638;2024-02-28T00:11:07;57713.63;;;-144.78;67.35
55994;BME280;67425;52.126;20.638;2024-02-28T00:13:33;57705.34;;;-144.78;68.16
55994;BME280;67425;52.126;20.638;2024-02-28T00:15:58;57717.78;;;-144.78;67.95
55994;BME280;67425;52.126;20.638;2024-02-28T00:18:23;57717.78;;;-144.78;68.06
55994;BME280;67425;52.126;20.638;2024-02-28T00:20:48;57724.03;;;-144.78;68.23
55994;BME280;67425;52.126;20.638;2024-02-28T00:23:14;57726.09;;;-144.78;68.69
55994;BME280;67425;52.126;20.638;2024-02-28T00:25:39;57736.50;;;-144.78;68.77
55994;BME280;67425;52.126;20.638;2024-02-28T00:28:04;57703.25;;;-144.78;68.33
55994;BME280;67425;52.126;20.638;2024-02-28T00:30:29;57709.50;;;-144.78;70.04
55994;BME280;67425;52.126;20.638;2024-02-28T00:32:55;57755.19;;;-144.78;69.38
55994;BME280;67425;52.126;20.638;2024-02-28T00:35:20;57726.09;;;-144.78;67.87
55994;BME280;67425;52.126;20.638;2024-02-28T00:37:45;57717.78;;;-144.78;67.92
55994;BME280;67425;52.126;20.638;2024-02-28T00:40:11;57711.56;;;-144.78;67.78
55994;BME280;67425;52.126;20.638;2024-02-28T00:42:36;57730.25;;;-144.78;71.56
55994;BME280;67425;52.126;20.638;2024-02-28T00:45:01;57734.41;;;-144.78;70.23
55994;BME280;67425;52.126;20.638;2024-02-28T00:47:27;57703.25;;;-144.78;70.39
55994;BME280;67425;52.126;20.638;2024-02-28T00:49:53;57724.03;;;-144.78;70.67
55994;BME280;67425;52.126;20.638;2024-02-28T00:52:18;57742.72;;;-144.78;71.95
55994;BME280;67425;52.126;20.638;2024-02-28T00:54:43;57759.34;;;-144.78;73.06
55994;BME280;67425;52.126;20.638;2024-02-28T00:57:09;57757.25;;;-144.78;72.21
55994;BME280;67425;52.126;20.638;2024-02-28T00:59:34;57740.63;;;-144.78;72.44
55994;BME280;67425;52.126;20.638;2024-02-28T01:01:59;57719.88;;;-144.78;71.29
55994;BME280;67425;52.126;20.638;2024-02-28T01:04:24;57721.94;;;-144.78;70.88
55994;BME280;67425;52.126;20.638;2024-02-28T01:06:49;57721.94;;;-144.78;70.67
55994;BME280;67425;52.126;20.638;2024-02-28T01:09:15;57730.25;;;-144.78;69.86
55994;BME280;67425;52.126;20.638;2024-02-28T01:11:40;57709.50;;;-144.78;69.13
55994;BME280;67425;52.126;20.638;2024-02-28T01:14:05;57719.88;;;-144.78;68.67
55994;BME280;67425;52.126;20.638;2024-02-28T01:16:30;57728.19;;;-144.78;68.42
55994;BME280;67425;52.126;20.638;2024-02-28T01:18:56;57721.94;;;-144.78;69.72
55994;BME280;67425;52.126;20.638;2024-02-28T01:21:21;57713.63;;;-144.78;71.76
55994;BME280;67425;52.126;20.638;2024-02-28T01:23:46;57738.56;;;-144.78;71.60
55994;BME280;67425;52.126;20.638;2024-02-28T01:26:12;57744.78;;;-144.78;70.30
55994;BME280;67425;52.126;20.638;2024-02-28T01:28:37;57742.72;;;-144.78;71.10
55994;BME280;67425;52.126;20.638;2024-02-28T01:31:02;57709.50;;;-144.78;71.94
55994;BME280;67425;52.126;20.638;2024-02-28T01:33:28;57724.03;;;-144.78;72.32
55994;BME280;67425;52.126;20.638;2024-02-28T01:35:53;57703.25;;;-144.78;72.12
55994;BME280;67425;52.126;20.638;2024-02-28T01:38:18;57726.09;;;-144.78;71.36
55994;BME280;67425;52.126;20.638;2024-02-28T01:40:46;57705.34;;;-144.78;71.24
55994;BME280;67425;52.126;20.638;2024-02-28T01:43:12;57711.56;;;-144.78;71.09
55994;BME280;67425;52.126;20.638;2024-02-28T01:45:38;57736.50;;;-144.78;72.46
55994;BME280;67425;52.126;20.638;2024-02-28T01:48:03;57753.09;;;-144.78;73.09
55994;BME280;67425;52.126;20.638;2024-02-28T01:50:32;57728.19;;;-144.78;72.03
55994;BME280;67425;52.126;20.638;2024-02-28T01:52:57;57728.19;;;-144.78;71.90
55994;BME280;67425;52.126;20.638;2024-02-28T01:55:22;57734.41;;;-144.78;72.67
55994;BME280;67425;52.126;20.638;2024-02-28T01:57:48;57726.09;;;-144.78;71.41
55994;BME280;67425;52.126;20.638;2024-02-28T02:00:13;57719.88;;;-144.78;71.08
55994;BME280;67425;52.126;20.638;2024-02-28T02:02:40;57730.25;;;-144.78;71.83
55994;BME280;67425;52.126;20.638;2024-02-28T02:05:06;57707.41;;;-144.78;73.30
55994;BME280;67425;52.126;20.638;2024-02-28T02:07:32;57717.78;;;-144.78;72.01
55994;BME280;67425;52.126;20.638;2024-02-28T02:09:57;57711.56;;;-144.78;71.42
55994;BME280;67425;52.126;20.638;2024-02-28T02:12:22;57730.25;;;-144.78;75.88
55994;BME280;67425;52.126;20.638;2024-02-28T02:14:48;57726.09;;;-144.78;74.94
55994;BME280;67425;52.126;20.638;2024-02-28T02:17:14;57748.94;;;-144.78;75.93
55994;BME280;67425;52.126;20.638;2024-02-28T02:19:39;57738.56;;;-144.78;75.25
55994;BME280;67425;52.126;20.638;2024-02-28T02:22:05;57744.78;;;-144.78;74.59
55994;BME280;67425;52.126;20.638;2024-02-28T02:24:30;57715.72;;;-144.78;74.13
55994;BME280;67425;52.126;20.638;2024-02-28T02:26:58;57742.72;;;-144.78;73.76
55994;BME280;67425;52.126;20.638;2024-02-28T02:29:23;57721.94;;;-144.78;73.94
55994;BME280;67425;52.126;20.638;2024-02-28T02:31:49;57713.63;;;-144.78;73.52
55994;BME280;67425;52.126;20.638;2024-02-28T02:34:14;57736.50;;;-144.78;73.60
55994;BME280;67425;52.126;20.638;2024-02-28T02:36:39;57736.50;;;-144.78;74.75
55994;BME280;67425;52.126;20.638;2024-02-28T02:39:05;57728.19;;;-144.78;75.29
55994;BME280;67425;52.126;20.638;2024-02-28T02:41:32;57751.03;;;-144.78;76.33
55994;BME280;67425;52.126;20.638;2024-02-28T02:43:58;57738.56;;;-144.78;77.98
55994;BME280;67425;52.126;20.638;2024-02-28T02:46:23;57736.50;;;-144.78;80.18
55994;BME280;67425;52.126;20.638;2024-02-28T02:48:48;57713.63;;;-144.78;81.04
55994;BME280;67425;52.126;20.638;2024-02-28T02:51:13;57719.88;;;-144.78;79.84
55994;BME280;67425;52.126;20.638;2024-02-28T02:53:39;57740.63;;;-144.78;78.34
55994;BME280;67425;52.126;20.638;2024-02-28T02:56:04;57730.25;;;-144.78;77.96
55994;BME280;67425;52.126;20.638;2024-02-28T02:58:30;57730.25;;;-144.78;76.82
55994;BME280;67425;52.126;20.638;2024-02-28T03:00:55;57724.03;;;-144.78;76.11
55994;BME280;67425;52.126;20.638;2024-02-28T03:03:20;57705.34;;;-144.78;75.18
55994;BME280;67425;52.126;20.638;2024-02-28T03:05:45;57717.78;;;-144.78;74.99
55994;BME280;67425;52.126;20.638;2024-02-28T03:08:11;57692.88;;;-144.78;74.50
55994;BME280;67425;52.126;20.638;2024-02-28T03:10:36;57701.19;;;-144.78;75.13
55994;BME280;67425;52.126;20.638;2024-02-28T03:13:01;57717.78;;;-144.78;74.99
55994;BME280;67425;52.126;20.638;2024-02-28T03:15:27;57746.88;;;-144.78;74.29
55994;BME280;67425;52.126;20.638;2024-02-28T03:17:52;57728.19;;;-144.78;74.37
55994;BME280;67425;52.126;20.638;2024-02-28T03:20:17;57738.56;;;-144.78;75.55
55994;BME280;67425;52.126;20.638;2024-02-28T03:22:42;57763.47;;;-144.78;76.19
55994;BME280;67425;52.126;20.638;2024-02-28T03:25:08;57732.34;;;-144.78;75.66
55994;BME280;67425;52.126;20.638;2024-02-28T03:27:33;57732.34;;;-144.78;75.74
55994;BME280;67425;52.126;20.638;2024-02-28T03:29:58;57717.78;;;-144.78;75.24
55994;BME280;67425;52.126;20.638;2024-02-28T03:32:24;57742.72;;;-144.78;75.04
55994;BME280;67425;52.126;20.638;2024-02-28T03:34:49;57721.94;;;-144.78;74.59
55994;BME280;67425;52.126;20.638;2024-02-28T03:37:14;57738.56;;;-144.78;74.88
55994;BME280;67425;52.126;20.638;2024-02-28T03:39:40;57742.72;;;-144.78;75.33
55994;BME280;67425;52.126;20.638;2024-02-28T03:42:05;57690.78;;;-144.78;74.92
55994;BME280;67425;52.126;20.638;2024-02-28T03:44:30;57740.63;;;-144.78;74.44
55994;BME280;67425;52.126;20.638;2024-02-28T03:46:56;57719.88;;;-144.78;74.16
55994;BME280;67425;52.126;20.638;2024-02-28T03:49:21;57721.94;;;-144.78;74.28
55994;BME280;67425;52.126;20.638;2024-02-28T03:51:46;57707.41;;;-144.78;74.40
55994;BME280;67425;52.126;20.638;2024-02-28T03:54:11;57728.19;;;-144.78;74.54
55994;BME280;67425;52.126;20.638;2024-02-28T03:56:37;57707.41;;;-144.78;75.69
55994;BME280;67425;52.126;20.638;2024-02-28T03:59:02;57719.88;;;-144.78;76.05
55994;BME280;67425;52.126;20.638;2024-02-28T04:01:29;57746.88;;;-144.78;75.83
55994;BME280;67425;52.126;20.638;2024-02-28T04:03:54;57715.72;;;-144.78;74.92
55994;BME280;67425;52.126;20.638;2024-02-28T04:06:19;57724.03;;;-144.78;74.68
55994;BME280;67425;52.126;20.638;2024-02-28T04:08:44;57701.19;;;-144.78;74.55
55994;BME280;67425;52.126;20.638;2024-02-28T04:11:10;57738.56;;;-144.78;75.26
55994;BME280;67425;52.126;20.638;2024-02-28T04:13:35;57742.72;;;-144.78;75.69
55994;BME280;67425;52.126;20.638;2024-02-28T04:16:01;57748.94;;;-144.78;75.55
55994;BME280;67425;52.126;20.638;2024-02-28T04:18:28;57717.78;;;-144.78;75.80
55994;BME280;67425;52.126;20.638;2024-02-28T04:20:53;57736.50;;;-144.78;75.52
55994;BME280;67425;52.126;20.638;2024-02-28T04:23:18;57719.88;;;-144.78;76.43
55994;BME280;67425;52.126;20.638;2024-02-28T04:25:43;57719.88;;;-144.78;76.64
55994;BME280;67425;52.126;20.638;2024-02-28T04:28:09;57730.25;;;-144.78;77.33
55994;BME280;67425;52.126;20.638;2024-02-28T04:30:34;57728.19;;;-144.78;76.84
55994;BME280;67425;52.126;20.638;2024-02-28T04:33:00;57755.19;;;-144.78;76.11
55994;BME280;67425;52.126;20.638;2024-02-28T04:35:25;57738.56;;;-144.78;76.30
55994;BME280;67425;52.126;20.638;2024-02-28T04:37:50;57755.19;;;-144.78;77.05
55994;BME280;67425;52.126;20.638;2024-02-28T04:40:15;57734.41;;;-144.78;78.21
55994;BME280;67425;52.126;20.638;2024-02-28T04:42:41;57724.03;;;-144.78;77.99
55994;BME280;67425;52.126;20.638;2024-02-28T04:45:06;57734.41;;;-144.78;77.13
55994;BME280;67425;52.126;20.638;2024-02-28T04:47:32;57740.63;;;-144.78;76.83
55994;BME280;67425;52.126;20.638;2024-02-28T04:49:57;57742.72;;;-144.78;75.79
55994;BME280;67425;52.126;20.638;2024-02-28T04:52:22;57765.56;;;-144.78;75.24
55994;BME280;67425;52.126;20.638;2024-02-28T04:54:49;57744.78;;;-144.78;76.99
55994;BME280;67425;52.126;20.638;2024-02-28T04:57:15;57773.88;;;-144.78;80.67
55994;BME280;67425;52.126;20.638;2024-02-28T04:59:41;57742.72;;;-144.78;80.78
55994;BME280;67425;52.126;20.638;2024-02-28T05:02:06;57736.50;;;-144.78;81.58
55994;BME280;67425;52.126;20.638;2024-02-28T05:04:31;57748.94;;;-144.78;80.68
55994;BME280;67425;52.126;20.638;2024-02-28T05:06:56;57717.78;;;-144.78;77.88
55994;BME280;67425;52.126;20.638;2024-02-28T05:09:22;57721.94;;;-144.78;76.97
55994;BME280;67425;52.126;20.638;2024-02-28T05:11:47;57767.63;;;-144.78;76.24
55994;BME280;67425;52.126;20.638;2024-02-28T05:14:12;57759.34;;;-144.78;76.19
55994;BME280;67425;52.126;20.638;2024-02-28T05:16:37;57734.41;;;-144.78;75.70
55994;BME280;67425;52.126;20.638;2024-02-28T05:19:03;57751.03;;;-144.78;76.37
55994;BME280;67425;52.126;20.638;2024-02-28T05:21:29;57771.78;;;-144.78;76.47
55994;BME280;67425;52.126;20.638;2024-02-28T05:23:54;57761.41;;;-144.78;76.07
55994;BME280;67425;52.126;20.638;2024-02-28T05:26:19;57726.09;;;-144.78;75.97
55994;BME280;67425;52.126;20.638;2024-02-28T05:28:45;57740.63;;;-144.78;75.80
55994;BME280;67425;52.126;20.638;2024-02-28T05:31:26;57755.19;;;-144.78;77.64
55994;BME280;67425;52.126;20.638;2024-02-28T05:33:52;57748.94;;;-144.78;77.42
55994;BME280;67425;52.126;20.638;2024-02-28T05:36:17;57726.09;;;-144.78;77.95
55994;BME280;67425;52.126;20.638;2024-02-28T05:38:43;57744.78;;;-144.78;78.29
55994;BME280;67425;52.126;20.638;2024-02-28T05:41:09;57715.72;;;-144.78;78.92
55994;BME280;67425;52.126;20.638;2024-02-28T05:43:34;57751.03;;;-144.78;80.41
55994;BME280;67425;52.126;20.638;2024-02-28T05:45:59;57715.72;;;-144.78;79.73
55994;BME280;67425;52.126;20.638;2024-02-28T05:48:24;57738.56;;;-144.78;80.38
55994;BME280;67425;52.126;20.638;2024-02-28T05:50:50;57738.56;;;-144.78;79.03
55994;BME280;67425;52.126;20.638;2024-02-28T05:53:15;57755.19;;;-144.78;78.11
55994;BME280;67425;52.126;20.638;2024-02-28T05:55:40;57742.72;;;-144.78;79.62
55994;BME280;67425;52.126;20.638;2024-02-28T05:58:05;57721.94;;;-144.78;80.49
55994;BME280;67425;52.126;20.638;2024-02-28T06:00:31;57738.56;;;-144.78;80.18
55994;BME280;67425;52.126;20.638;2024-02-28T06:02:56;57730.25;;;-144.78;80.05
55994;BME280;67425;52.126;20.638;2024-02-28T06:05:21;57742.72;;;-144.78;78.94
55994;BME280;67425;52.126;20.638;2024-02-28T06:07:46;57726.09;;;-144.78;79.39
55994;BME280;67425;52.126;20.638;2024-02-28T06:10:11;57719.88;;;-144.78;78.57
55994;BME280;67425;52.126;20.638;2024-02-28T06:12:37;57728.19;;;-144.78;78.40
55994;BME280;67425;52.126;20.638;2024-02-28T06:15:02;57730.25;;;-144.78;77.90
55994;BME280;67425;52.126;20.638;2024-02-28T06:17:28;57709.50;;;-144.78;77.79
55994;BME280;67425;52.126;20.638;2024-02-28T06:19:53;57701.19;;;-144.78;77.12
55994;BME280;67425;52.126;20.638;2024-02-28T06:22:19;57730.25;;;-144.78;77.31
55994;BME280;67425;52.126;20.638;2024-02-28T06:24:45;57713.63;;;-144.78;76.19
55994;BME280;67425;52.126;20.638;2024-02-28T06:27:10;57705.34;;;-144.78;75.24
55994;BME280;67425;52.126;20.638;2024-02-28T06:29:37;57701.19;;;-144.78;75.27
55994;BME280;67425;52.126;20.638;2024-02-28T06:32:03;57713.63;;;-144.78;76.24
55994;BME280;67425;52.126;20.638;2024-02-28T06:34:29;57730.25;;;-144.78;77.60
55994;BME280;67425;52.126;20.638;2024-02-28T06:36:54;57726.09;;;-144.78;76.41
55994;BME280;67425;52.126;20.638;2024-02-28T06:39:19;57713.63;;;-144.78;76.89
55994;BME280;67425;52.126;20.638;2024-02-28T06:41:44;57738.56;;;-144.78;76.85
55994;BME280;67425;52.126;20.638;2024-02-28T06:44:10;57707.41;;;-144.78;75.69
55994;BME280;67425;52.126;20.638;2024-02-28T06:46:36;57719.88;;;-144.78;75.89
55994;BME280;67425;52.126;20.638;2024-02-28T06:49:02;57715.72;;;-144.78;76.04
55994;BME280;67425;52.126;20.638;2024-02-28T06:51:27;57684.56;;;-144.78;75.97
55994;BME280;67425;52.126;20.638;2024-02-28T06:53:52;57724.03;;;-144.78;75.72
55994;BME280;67425;52.126;20.638;2024-02-28T06:56:17;57728.19;;;-144.78;75.83
55994;BME280;67425;52.126;20.638;2024-02-28T06:58:43;57692.88;;;-144.78;75.33
55994;BME280;67425;52.126;20.638;2024-02-28T07:01:08;57707.41;;;-144.78;75.68
55994;BME280;67425;52.126;20.638;2024-02-28T07:03:33;57684.56;;;-144.78;76.17
55994;BME280;67425;52.126;20.638;2024-02-28T07:05:59;57715.72;;;-144.78;76.58
55994;BME280;67425;52.126;20.638;2024-02-28T07:08:24;57711.56;;;-144.78;76.19
55994;BME280;67425;52.126;20.638;2024-02-28T07:10:49;57713.63;;;-144.78;76.78
55994;BME280;67425;52.126;20.638;2024-02-28T07:13:18;57692.88;;;-144.78;77.67
55994;BME280;67425;52.126;20.638;2024-02-28T07:15:44;57690.78;;;-144.78;77.84
55994;BME280;67425;52.126;20.638;2024-02-28T07:18:09;57709.50;;;-144.78;77.48
55994;BME280;67425;52.126;20.638;2024-02-28T07:20:34;57746.88;;;-144.78;77.72
55994;BME280;67425;52.126;20.638;2024-02-28T07:22:59;57688.72;;;-144.78;77.56
55994;BME280;67425;52.126;20.638;2024-02-28T07:25:25;57717.78;;;-144.78;77.95
55994;BME280;67425;52.126;20.638;2024-02-28T07:27:50;57703.25;;;-144.78;77.61
55994;BME280;67425;52.126;20.638;2024-02-28T07:30:15;57672.09;;;-144.78;76.93
55994;BME280;67425;52.126;20.638;2024-02-28T07:32:40;57701.19;;;-144.78;75.75
55994;BME280;67425;52.126;20.638;2024-02-28T07:35:06;57699.09;;;-144.78;75.98
55994;BME280;67425;52.126;20.638;2024-02-28T07:37:31;57661.72;;;-144.78;76.47
55994;BME280;67425;52.126;20.638;2024-02-28T07:39:56;57701.19;;;-144.78;76.69
55994;BME280;67425;52.126;20.638;2024-02-28T07:42:22;57690.78;;;-144.78;76.53
55994;BME280;67425;52.126;20.638;2024-02-28T07:44:47;57703.25;;;-144.78;75.75
55994;BME280;67425;52.126;20.638;2024-02-28T07:47:12;57678.34;;;-144.78;75.29
55994;BME280;67425;52.126;20.638;2024-02-28T07:49:39;57697.03;;;-144.78;75.12
55994;BME280;67425;52.126;20.638;2024-02-28T07:52:04;57680.41;;;-144.78;75.46
55994;BME280;67425;52.126;20.638;2024-02-28T07:54:30;57686.63;;;-144.78;76.25
55994;BME280;67425;52.126;20.638;2024-02-28T07:56:55;57694.94;;;-144.78;75.54
55994;BME280;67425;52.126;20.638;2024-02-28T07:59:20;57690.78;;;-144.78;76.05
55994;BME280;67425;52.126;20.638;2024-02-28T08:01:45;57672.09;;;-144.78;76.37
55994;BME280;67425;52.126;20.638;2024-02-28T08:04:11;57690.78;;;-144.78;76.11
55994;BME280;67425;52.126;20.638;2024-02-28T08:06:36;57680.41;;;-144.78;76.13
55994;BME280;67425;52.126;20.638;2024-02-28T08:09:01;57682.50;;;-144.78;75.64
55994;BME280;67425;52.126;20.638;2024-02-28T08:11:29;57690.78;;;-144.78;76.72
55994;BME280;67425;52.126;20.638;2024-02-28T08:13:54;57678.34;;;-144.78;75.78
55994;BME280;67425;52.126;20.638;2024-02-28T08:16:19;57709.50;;;-144.78;75.98
55994;BME280;67425;52.126;20.638;2024-02-28T08:18:45;57686.63;;;-144.78;75.75
55994;BME280;67425;52.126;20.638;2024-02-28T08:21:10;57690.78;;;-144.78;75.95
55994;BME280;67425;52.126;20.638;2024-02-28T08:23:35;57678.34;;;-144.78;76.19
55994;BME280;67425;52.126;20.638;2024-02-28T08:26:00;57659.63;;;-144.78;75.83
55994;BME280;67425;52.126;20.638;2024-02-28T08:28:26;57682.50;;;-144.78;76.27
55994;BME280;67425;52.126;20.638;2024-02-28T08:30:51;57701.19;;;-144.78;76.39
55994;BME280;67425;52.126;20.638;2024-02-28T08:33:16;57692.88;;;-144.78;75.25
55994;BME280;67425;52.126;20.638;2024-02-28T08:35:41;57655.50;;;-144.78;76.30
55994;BME280;67425;52.126;20.638;2024-02-28T08:38:08;57686.63;;;-144.78;76.35
55994;BME280;67425;52.126;20.638;2024-02-28T08:40:33;57682.50;;;-144.78;76.63
55994;BME280;67425;52.126;20.638;2024-02-28T08:42:58;57699.09;;;-144.78;75.85
55994;BME280;67425;52.126;20.638;2024-02-28T08:45:24;57672.09;;;-144.78;74.77
55994;BME280;67425;52.126;20.638;2024-02-28T08:47:49;57667.94;;;-144.78;74.20
55994;BME280;67425;52.126;20.638;2024-02-28T08:50:14;57680.41;;;-144.78;75.48
55994;BME280;67425;52.126;20.638;2024-02-28T08:52:39;57684.56;;;-144.78;75.83
55994;BME280;67425;52.126;20.638;2024-02-28T08:55:05;57667.94;;;-144.78;76.19
55994;BME280;67425;52.126;20.638;2024-02-28T08:57:31;57667.94;;;-144.78;75.26
55994;BME280;67425;52.126;20.638;2024-02-28T08:59:56;57665.88;;;-144.78;75.25
55994;BME280;67425;52.126;20.638;2024-02-28T09:02:21;57682.50;;;-144.78;75.53
55994;BME280;67425;52.126;20.638;2024-02-28T09:04:47;57705.34;;;-144.78;76.49
55994;BME280;67425;52.126;20.638;2024-02-28T09:07:16;57697.03;;;-144.78;76.14
55994;BME280;67425;52.126;20.638;2024-02-28T09:09:44;57682.50;;;-144.78;74.47
55994;BME280;67425;52.126;20.638;2024-02-28T09:12:09;57678.34;;;-144.78;73.63
55994;BME280;67425;52.126;20.638;2024-02-28T09:14:35;57688.72;;;-144.78;74.76
55994;BME280;67425;52.126;20.638;2024-02-28T09:17:00;57688.72;;;-144.78;75.24
55994;BME280;67425;52.126;20.638;2024-02-28T09:19:28;57694.94;;;-144.78;76.18
55994;BME280;67425;52.126;20.638;2024-02-28T09:21:53;57682.50;;;-144.78;75.54
55994;BME280;67425;52.126;20.638;2024-02-28T09:24:18;57682.50;;;-144.78;74.42
55994;BME280;67425;52.126;20.638;2024-02-28T09:26:44;57703.25;;;-144.78;74.77
55994;BME280;67425;52.126;20.638;2024-02-28T09:29:09;57692.88;;;-144.78;74.68
55994;BME280;67425;52.126;20.638;2024-02-28T09:31:34;57711.56;;;-144.78;75.64
55994;BME280;67425;52.126;20.638;2024-02-28T09:33:59;57688.72;;;-144.78;75.21
55994;BME280;67425;52.126;20.638;2024-02-28T09:36:28;57692.88;;;-144.78;76.52
55994;BME280;67425;52.126;20.638;2024-02-28T09:38:53;57647.19;;;-144.78;74.50
55994;BME280;67425;52.126;20.638;2024-02-28T09:41:18;57686.63;;;-144.78;75.96
55994;BME280;67425;52.126;20.638;2024-02-28T09:43:44;57657.56;;;-144.78;75.40
55994;BME280;67425;52.126;20.638;2024-02-28T09:46:09;57676.25;;;-144.78;74.90
55994;BME280;67425;52.126;20.638;2024-02-28T09:48:38;57688.72;;;-144.78;75.34
55994;BME280;67425;52.126;20.638;2024-02-28T09:51:03;57694.94;;;-144.78;74.64
55994;BME280;67425;52.126;20.638;2024-02-28T09:53:29;57672.09;;;-144.78;75.07
55994;BME280;67425;52.126;20.638;2024-02-28T09:55:54;57692.88;;;-144.78;76.19
55994;BME280;67425;52.126;20.638;2024-02-28T09:58:20;57678.34;;;-144.78;74.88
55994;BME280;67425;52.126;20.638;2024-02-28T10:00:46;57680.41;;;-144.78;75.05
55994;BME280;67425;52.126;20.638;2024-02-28T10:03:13;57684.56;;;-144.78;73.97
55994;BME280;67425;52.126;20.638;2024-02-28T10:05:38;57697.03;;;-144.78;74.81
55994;BME280;67425;52.126;20.638;2024-02-28T10:08:04;57697.03;;;-144.78;74.33
55994;BME280;67425;52.126;20.638;2024-02-28T10:10:30;57688.72;;;-144.78;74.61
55994;BME280;67425;52.126;20.638;2024-02-28T10:12:55;57663.78;;;-144.78;74.32
55994;BME280;67425;52.126;20.638;2024-02-28T10:15:21;57676.25;;;-144.78;73.80
55994;BME280;67425;52.126;20.638;2024-02-28T10:17:47;57686.63;;;-144.78;74.57
55994;BME280;67425;52.126;20.638;2024-02-28T10:20:12;57655.50;;;-144.78;75.18
55994;BME280;67425;52.126;20.638;2024-02-28T10:22:37;57701.19;;;-144.78;74.68
55994;BME280;67425;52.126;20.638;2024-02-28T10:25:03;57684.56;;;-144.78;75.18
55994;BME280;67425;52.126;20.638;2024-02-28T10:27:31;57676.25;;;-144.78;74.35
55994;BME280;67425;52.126;20.638;2024-02-28T10:29:57;57661.72;;;-144.78;76.35
55994;BME280;67425;52.126;20.638;2024-02-28T10:32:22;57647.19;;;-144.78;75.12
55994;BME280;67425;52.126;20.638;2024-02-28T10:34:47;57690.78;;;-144.78;73.88
55994;BME280;67425;52.126;20.638;2024-02-28T10:37:13;57676.25;;;-144.78;74.69
55994;BME280;67425;52.126;20.638;2024-02-28T10:39:38;57686.63;;;-144.78;74.43
55994;BME280;67425;52.126;20.638;2024-02-28T10:42:03;57684.56;;;-144.78;74.95
55994;BME280;67425;52.126;20.638;2024-02-28T10:44:29;57701.19;;;-144.78;75.13
55994;BME280;67425;52.126;20.638;2024-02-28T10:46:56;57680.41;;;-144.78;76.81
55994;BME280;67425;52.126;20.638;2024-02-28T10:49:21;57717.78;;;-144.78;75.41
55994;BME280;67425;52.126;20.638;2024-02-28T10:51:48;57711.56;;;-144.78;76.82
55994;BME280;67425;52.126;20.638;2024-02-28T10:54:14;57688.72;;;-144.78;75.74
55994;BME280;67425;52.126;20.638;2024-02-28T10:56:40;57715.72;;;-144.78;76.59
55994;BME280;67425;52.126;20.638;2024-02-28T10:59:06;57676.25;;;-144.78;78.59
55994;BME280;67425;52.126;20.638;2024-02-28T11:01:33;57717.78;;;-144.78;80.00
55994;BME280;67425;52.126;20.638;2024-02-28T11:03:59;57709.50;;;-144.78;79.85
55994;BME280;67425;52.126;20.638;2024-02-28T11:06:24;57736.50;;;-144.78;80.62
55994;BME280;67425;52.126;20.638;2024-02-28T11:08:51;57730.25;;;-144.78;80.88
55994;BME280;67425;52.126;20.638;2024-02-28T11:11:21;57738.56;;;-144.78;79.33
55994;BME280;67425;52.126;20.638;2024-02-28T11:13:53;57713.63;;;-144.78;79.36
55994;BME280;67425;52.126;20.638;2024-02-28T11:16:25;57736.50;;;-144.78;79.03
55994;BME280;67425;52.126;20.638;2024-02-28T11:18:51;57721.94;;;-144.78;79.23
55994;BME280;67425;52.126;20.638;2024-02-28T11:21:16;57726.09;;;-144.78;80.54
55994;BME280;67425;52.126;20.638;2024-02-28T11:23:42;57709.50;;;-144.78;78.20
55994;BME280;67425;52.126;20.638;2024-02-28T11:26:11;57688.72;;;-144.78;78.76
55994;BME280;67425;52.126;20.638;2024-02-28T11:28:38;57734.41;;;-144.78;77.50
55994;BME280;67425;52.126;20.638;2024-02-28T11:31:03;57699.09;;;-144.78;78.20
55994;BME280;67425;52.126;20.638;2024-02-28T11:33:28;57709.50;;;-144.78;76.34
55994;BME280;67425;52.126;20.638;2024-02-28T11:35:57;57726.09;;;-144.78;77.67
55994;BME280;67425;52.126;20.638;2024-02-28T11:38:26;57728.19;;;-144.78;76.89
55994;BME280;67425;52.126;20.638;2024-02-28T11:40:51;57736.50;;;-144.78;77.17
55994;BME280;67425;52.126;20.638;2024-02-28T11:43:17;57726.09;;;-144.78;77.72
55994;BME280;67425;52.126;20.638;2024-02-28T11:45:43;57736.50;;;-144.78;77.65
55994;BME280;67425;52.126;20.638;2024-02-28T11:48:08;57738.56;;;-144.78;77.87
55994;BME280;67425;52.126;20.638;2024-02-28T11:50:34;57742.72;;;-144.78;77.95
55994;BME280;67425;52.126;20.638;2024-02-28T11:52:59;57717.78;;;-144.78;78.14
55994;BME280;67425;52.126;20.638;2024-02-28T11:55:27;57724.03;;;-144.78;77.46
55994;BME280;67425;52.126;20.638;2024-02-28T11:57:52;57738.56;;;-144.78;78.84
55994;BME280;67425;52.126;20.638;2024-02-28T12:00:17;57740.63;;;-144.78;78.90
55994;BME280;67425;52.126;20.638;2024-02-28T12:02:43;57744.78;;;-144.78;78.28
55994;BME280;67425;52.126;20.638;2024-02-28T12:05:08;57717.78;;;-144.78;79.13
55994;BME280;67425;52.126;20.638;2024-02-28T12:07:34;57726.09;;;-144.78;79.86
55994;BME280;67425;52.126;20.638;2024-02-28T12:10:00;57738.56;;;-144.78;80.25
55994;BME280;67425;52.126;20.638;2024-02-28T12:12:27;57751.03;;;-144.78;80.02
55994;BME280;67425;52.126;20.638;2024-02-28T12:14:52;57751.03;;;-144.78;81.32
55994;BME280;67425;52.126;20.638;2024-02-28T12:17:17;57724.03;;;-144.78;80.75
55994;BME280;67425;52.126;20.638;2024-02-28T12:19:43;57719.88;;;-144.78;79.79
55994;BME280;67425;52.126;20.638;2024-02-28T12:22:08;57738.56;;;-144.78;80.30